sensor_id;sensor_type;location;lat;lon;timestamp;P1;durP1;ratioP1;P2;durP2;ratioP2
61739;SDS011;47645;45.288;12.038;2022-12-18T00:01:14;10.4;;;6.7;;
61739;SDS011;47645;45.288;12.038;2022-12-18T00:11:11;11.8;;;7.0;;
61739;SDS011;47645;45.288;12.038;2022-12-18T00:21:11;9.3;;;6.0;;
61739;SDS011;47645;45.288;12.038;2022-12-18T00:31:13;10.0;;;6.3;;
61739;SDS011;47645;45.288;12.038;2022-12-18T00:41:12;8.9;;;6.3;;
61739;SDS011;47645;45.288;12.038;2022-12-18T00:51:12;8.5;;;5.6;;
61739;SDS011;47645;45.288;12.038;2022-12-18T01:01:13;9.7;;;6.3;;
61739;SDS011;47645;45.288;12.038;2022-12-18T01:11:14;8.6;;;5.9;;
61739;SDS011;47645;45.288;12.038;2022-12-18T01:21:15;12.1;;;6.5;;
61739;SDS011;47645;45.288;12.038;2022-12-18T01:31:16;9.2;;;6.4;;
61739;SDS011;47645;45.288;12.038;2022-12-18T01:41:15;9.5;;;6.8;;
61739;SDS011;47645;45.288;12.038;2022-12-18T01:51:15;8.5;;;6.1;;
61739;SDS011;47645;45.288;12.038;2022-12-18T02:01:15;9.0;;;5.9;;
61739;SDS011;47645;45.288;12.038;2022-12-18T02:11:17;10.5;;;6.4;;
61739;SDS011;47645;45.288;12.038;2022-12-18T02:21:18;10.6;;;6.4;;
61739;SDS011;47645;45.288;12.038;2022-12-18T02:31:18;11.1;;;6.5;;
61739;SDS011;47645;45.288;12.038;2022-12-18T02:41:17;10.0;;;6.5;;
61739;SDS011;47645;45.288;12.038;2022-12-18T02:51:18;10.2;;;6.3;;
61739;SDS011;47645;45.288;12.038;2022-12-18T03:01:19;9.8;;;5.9;;
61739;SDS011;47645;45.288;12.038;2022-12-18T03:12:24;8.7;;;5.5;;
61739;SDS011;47645;45.288;12.038;2022-12-18T03:21:21;9.2;;;6.2;;
61739;SDS011;47645;45.288;12.038;2022-12-18T03:31:19;9.4;;;6.0;;
61739;SDS011;47645;45.288;12.038;2022-12-18T03:41:19;8.4;;;6.0;;
61739;SDS011;47645;45.288;12.038;2022-12-18T03:51:22;8.1;;;5.4;;
61739;SDS011;47645;45.288;12.038;2022-12-18T04:01:20;8.0;;;5.8;;
61739;SDS011;47645;45.288;12.038;2022-12-18T04:11:20;8.9;;;5.2;;
61739;SDS011;47645;45.288;12.038;2022-12-18T04:21:20;8.9;;;5.3;;
61739;SDS011;47645;45.288;12.038;2022-12-18T04:31:21;8.1;;;4.9;;
61739;SDS011;47645;45.288;12.038;2022-12-18T04:41:21;8.6;;;5.4;;
61739;SDS011;47645;45.288;12.038;2022-12-18T04:51:21;9.3;;;5.7;;
61739;SDS011;47645;45.288;12.038;2022-12-18T05:01:22;8.6;;;5.8;;
61739;SDS011;47645;45.288;12.038;2022-12-18T05:11:22;8.5;;;5.5;;
61739;SDS011;47645;45.288;12.038;2022-12-18T05:21:22;8.3;;;5.5;;
61739;SDS011;47645;45.288;12.038;2022-12-18T05:31:23;11.0;;;6.5;;
61739;SDS011;47645;45.288;12.038;2022-12-18T05:41:23;7.8;;;5.5;;
61739;SDS011;47645;45.288;12.038;2022-12-18T05:51:23;9.0;;;5.9;;
61739;SDS011;47645;45.288;12.038;2022-12-18T06:01:24;8.6;;;5.1;;
61739;SDS011;47645;45.288;12.038;2022-12-18T06:11:24;10.9;;;6.2;;
61739;SDS011;47645;45.288;12.038;2022-12-18T06:21:24;9.1;;;5.5;;
61739;SDS011;47645;45.288;12.038;2022-12-18T06:31:25;10.8;;;6.7;;
61739;SDS011;47645;45.288;12.038;2022-12-18T06:41:25;9.9;;;5.9;;
61739;SDS011;47645;45.288;12.038;2022-12-18T06:51:25;10.9;;;6.7;;
61739;SDS011;47645;45.288;12.038;2022-12-18T07:01:26;12.6;;;7.2;;
61739;SDS011;47645;45.288;12.038;2022-12-18T07:11:26;14.8;;;8.7;;
61739;SDS011;47645;45.288;12.038;2022-12-18T07:21:26;14.5;;;8.6;;
61739;SDS011;47645;45.288;12.038;2022-12-18T07:31:27;11.9;;;7.5;;
61739;SDS011;47645;45.288;12.038;2022-12-18T07:41:27;12.5;;;7.5;;
61739;SDS011;47645;45.288;12.038;2022-12-18T07:51:27;13.3;;;7.5;;
61739;SDS011;47645;45.288;12.038;2022-12-18T08:01:27;11.7;;;7.8;;
61739;SDS011;47645;45.288;12.038;2022-12-18T08:11:28;14.7;;;8.9;;
61739;SDS011;47645;45.288;12.038;2022-12-18T08:21:29;15.0;;;8.8;;
61739;SDS011;47645;45.288;12.038;2022-12-18T08:31:29;14.0;;;8.5;;
61739;SDS011;47645;45.288;12.038;2022-12-18T08:41:29;14.0;;;8.2;;
61739;SDS011;47645;45.288;12.038;2022-12-18T08:51:29;15.4;;;9.7;;
61739;SDS011;47645;45.288;12.038;2022-12-18T09:01:29;16.0;;;8.8;;
61739;SDS011;47645;45.288;12.038;2022-12-18T09:11:30;15.8;;;9.1;;
61739;SDS011;47645;45.288;12.038;2022-12-18T09:21:31;13.5;;;8.7;;
61739;SDS011;47645;45.288;12.038;2022-12-18T09:31:31;16.0;;;9.7;;
61739;SDS011;47645;45.288;12.038;2022-12-18T09:41:34;14.7;;;9.4;;
61739;SDS011;47645;45.288;12.038;2022-12-18T09:51:33;13.7;;;8.5;;
61739;SDS011;47645;45.288;12.038;2022-12-18T10:01:32;14.2;;;9.0;;
61739;SDS011;47645;45.288;12.038;2022-12-18T10:11:35;13.9;;;9.4;;
61739;SDS011;47645;45.288;12.038;2022-12-18T10:21:36;11.8;;;7.9;;
61739;SDS011;47645;45.288;12.038;2022-12-18T10:31:33;12.9;;;7.8;;
61739;SDS011;47645;45.288;12.038;2022-12-18T10:41:34;12.7;;;8.0;;
61739;SDS011;47645;45.288;12.038;2022-12-18T10:51:36;13.3;;;8.6;;
61739;SDS011;47645;45.288;12.038;2022-12-18T11:01:46;12.5;;;8.2;;
61739;SDS011;47645;45.288;12.038;2022-12-18T11:11:35;13.4;;;8.4;;
61739;SDS011;47645;45.288;12.038;2022-12-18T11:21:38;14.9;;;8.8;;
61739;SDS011;47645;45.288;12.038;2022-12-18T11:31:37;13.5;;;8.3;;
61739;SDS011;47645;45.288;12.038;2022-12-18T11:42:11;13.8;;;9.0;;
61739;SDS011;47645;45.288;12.038;2022-12-18T11:51:38;13.8;;;8.1;;
61739;SDS011;47645;45.288;12.038;2022-12-18T12:01:41;15.7;;;9.0;;
61739;SDS011;47645;45.288;12.038;2022-12-18T12:11:41;14.1;;;8.2;;
61739;SDS011;47645;45.288;12.038;2022-12-18T12:21:40;15.6;;;8.1;;
61739;SDS011;47645;45.288;12.038;2022-12-18T12:31:46;12.1;;;7.5;;
61739;SDS011;47645;45.288;12.038;2022-12-18T12:51:43;13.6;;;8.8;;
61739;SDS011;47645;45.288;12.038;2022-12-18T13:01:46;12.9;;;7.9;;
61739;SDS011;47645;45.288;12.038;2022-12-18T13:21:45;12.7;;;7.7;;
61739;SDS011;47645;45.288;12.038;2022-12-18T13:32:00;13.9;;;8.4;;
61739;SDS011;47645;45.288;12.038;2022-12-18T13:41:44;11.8;;;7.4;;
61739;SDS011;47645;45.288;12.038;2022-12-18T13:51:46;11.2;;;7.0;;
61739;SDS011;47645;45.288;12.038;2022-12-18T14:01:46;13.8;;;8.0;;
61739;SDS011;47645;45.288;12.038;2022-12-18T14:11:46;10.8;;;7.1;;
61739;SDS011;47645;45.288;12.038;2022-12-18T14:21:46;11.3;;;7.2;;
61739;SDS011;47645;45.288;12.038;2022-12-18T14:31:50;12.6;;;7.8;;
61739;SDS011;47645;45.288;12.038;2022-12-18T14:41:48;14.5;;;8.6;;
61739;SDS011;47645;45.288;12.038;2022-12-18T14:51:48;11.4;;;7.1;;
61739;SDS011;47645;45.288;12.038;2022-12-18T15:01:48;14.2;;;7.9;;
61739;SDS011;47645;45.288;12.038;2022-12-18T15:11:48;11.5;;;7.1;;
61739;SDS011;47645;45.288;12.038;2022-12-18T15:21:49;10.6;;;5.9;;
61739;SDS011;47645;45.288;12.038;2022-12-18T15:31:59;10.2;;;5.9;;
61739;SDS011;47645;45.288;12.038;2022-12-18T15:51:51;10.7;;;6.3;;
61739;SDS011;47645;45.288;12.038;2022-12-18T16:01:51;10.1;;;5.9;;
61739;SDS011;47645;45.288;12.038;2022-12-18T16:11:51;12.3;;;7.0;;
61739;SDS011;47645;45.288;12.038;2022-12-18T16:21:52;16.5;;;8.8;;
61739;SDS011;47645;45.288;12.038;2022-12-18T16:31:52;13.3;;;7.5;;
61739;SDS011;47645;45.288;12.038;2022-12-18T16:41:53;13.3;;;6.8;;
61739;SDS011;47645;45.288;12.038;2022-12-18T16:51:53;12.2;;;7.6;;
61739;SDS011;47645;45.288;12.038;2022-12-18T17:01:54;14.2;;;7.0;;
61739;SDS011;47645;45.288;12.038;2022-12-18T17:11:57;22.9;;;11.8;;
61739;SDS011;47645;45.288;12.038;2022-12-18T17:21:55;18.6;;;8.9;;
61739;SDS011;47645;45.288;12.038;2022-12-18T17:31:55;15.9;;;10.1;;
61739;SDS011;47645;45.288;12.038;2022-12-18T17:41:56;14.2;;;9.1;;
61739;SDS011;47645;45.288;12.038;2022-12-18T17:51:55;24.6;;;14.7;;
61739;SDS011;47645;45.288;12.038;2022-12-18T18:01:56;18.1;;;9.5;;
61739;SDS011;47645;45.288;12.038;2022-12-18T18:21:57;29.4;;;17.0;;
61739;SDS011;47645;45.288;12.038;2022-12-18T18:31:57;22.7;;;13.5;;
61739;SDS011;47645;45.288;12.038;2022-12-18T18:41:58;27.7;;;15.1;;
61739;SDS011;47645;45.288;12.038;2022-12-18T18:51:58;18.1;;;11.3;;
61739;SDS011;47645;45.288;12.038;2022-12-18T19:01:58;22.3;;;13.8;;
61739;SDS011;47645;45.288;12.038;2022-12-18T19:21:58;22.2;;;13.2;;
61739;SDS011;47645;45.288;12.038;2022-12-18T19:31:59;32.5;;;18.8;;
61739;SDS011;47645;45.288;12.038;2022-12-18T19:41:59;32.3;;;18.7;;
61739;SDS011;47645;45.288;12.038;2022-12-18T19:51:59;31.6;;;18.8;;
61739;SDS011;47645;45.288;12.038;2022-12-18T20:01:59;26.3;;;16.0;;
61739;SDS011;47645;45.288;12.038;2022-12-18T20:11:59;28.8;;;17.1;;
61739;SDS011;47645;45.288;12.038;2022-12-18T20:22:00;27.7;;;17.2;;
61739;SDS011;47645;45.288;12.038;2022-12-18T20:32:00;29.5;;;18.4;;
61739;SDS011;47645;45.288;12.038;2022-12-18T20:42:01;36.6;;;21.8;;
61739;SDS011;47645;45.288;12.038;2022-12-18T20:52:02;31.7;;;20.1;;
61739;SDS011;47645;45.288;12.038;2022-12-18T21:02:01;28.8;;;18.2;;
61739;SDS011;47645;45.288;12.038;2022-12-18T21:12:36;29.6;;;18.7;;
61739;SDS011;47645;45.288;12.038;2022-12-18T21:22:02;35.0;;;20.9;;
61739;SDS011;47645;45.288;12.038;2022-12-18T21:32:02;37.2;;;22.5;;
61739;SDS011;47645;45.288;12.038;2022-12-18T21:52:03;34.3;;;20.5;;
61739;SDS011;47645;45.288;12.038;2022-12-18T22:02:04;105.1;;;54.8;;
61739;SDS011;47645;45.288;12.038;2022-12-18T22:12:03;73.4;;;41.4;;
61739;SDS011;47645;45.288;12.038;2022-12-18T22:22:04;53.0;;;30.0;;
61739;SDS011;47645;45.288;12.038;2022-12-18T22:32:05;46.0;;;25.9;;
61739;SDS011;47645;45.288;12.038;2022-12-18T22:42:04;51.9;;;28.8;;
61739;SDS011;47645;45.288;12.038;2022-12-18T22:52:05;45.8;;;26.2;;
61739;SDS011;47645;45.288;12.038;2022-12-18T23:02:05;43.5;;;26.1;;
61739;SDS011;47645;45.288;12.038;2022-12-18T23:12:05;41.2;;;24.0;;
61739;SDS011;47645;45.288;12.038;2022-12-18T23:22:06;46.5;;;27.1;;
61739;SDS011;47645;45.288;12.038;2022-12-18T23:32:06;44.1;;;27.5;;
61739;SDS011;47645;45.288;12.038;2022-12-18T23:42:06;51.1;;;30.1;;
61739;SDS011;47645;45.288;12.038;2022-12-18T23:52:06;51.6;;;29.2;;
